sensor_id;sensor_type;location;lat;lon;timestamp;temperature;humidity
12911;DHT22;6523;49.758;6.120;2023-11-21T00:01:59;9.40;99.90
12911;DHT22;6523;49.758;6.120;2023-11-21T00:04:24;9.40;99.90
12911;DHT22;6523;49.758;6.120;2023-11-21T00:06:50;9.30;99.90
12911;DHT22;6523;49.758;6.120;2023-11-21T00:09:16;9.30;99.90
12911;DHT22;6523;49.758;6.120;2023-11-21T00:11:43;9.30;99.90
12911;DHT22;6523;49.758;6.120;2023-11-21T00:14:10;9.30;99.90
12911;DHT22;6523;49.758;6.120;2023-11-21T00:16:35;9.30;99.90
12911;DHT22;6523;49.758;6.120;2023-11-21T00:19:01;9.30;99.90
12911;DHT22;6523;49.758;6.120;2023-11-21T00:21:26;9.30;99.90
12911;DHT22;6523;49.758;6.120;2023-11-21T00:23:52;9.20;99.90
12911;DHT22;6523;49.758;6.120;2023-11-21T00:26:18;9.30;99.90
12911;DHT22;6523;49.758;6.120;2023-11-21T00:28:43;9.20;99.90
12911;DHT22;6523;49.758;6.120;2023-11-21T00:31:09;9.20;99.90
12911;DHT22;6523;49.758;6.120;2023-11-21T00:33:34;9.30;99.90
12911;DHT22;6523;49.758;6.120;2023-11-21T00:36:00;9.20;99.90
12911;DHT22;6523;49.758;6.120;2023-11-21T00:38:26;9.20;99.90
12911;DHT22;6523;49.758;6.120;2023-11-21T00:40:52;9.20;99.90
12911;DHT22;6523;49.758;6.120;2023-11-21T00:43:24;9.20;99.90
12911;DHT22;6523;49.758;6.120;2023-11-21T00:45:49;9.20;99.90
12911;DHT22;6523;49.758;6.120;2023-11-21T00:48:15;9.30;99.90
12911;DHT22;6523;49.758;6.120;2023-11-21T00:50:41;9.20;99.90
12911;DHT22;6523;49.758;6.120;2023-11-21T00:53:06;9.30;99.90
12911;DHT22;6523;49.758;6.120;2023-11-21T00:55:33;9.30;99.90
12911;DHT22;6523;49.758;6.120;2023-11-21T00:57:59;9.20;99.90
12911;DHT22;6523;49.758;6.120;2023-11-21T01:00:25;9.20;99.90
12911;DHT22;6523;49.758;6.120;2023-11-21T01:02:50;9.20;99.90
12911;DHT22;6523;49.758;6.120;2023-11-21T01:05:16;9.20;99.90
12911;DHT22;6523;49.758;6.120;2023-11-21T01:07:42;9.30;99.90
12911;DHT22;6523;49.758;6.120;2023-11-21T01:10:08;9.20;99.90
12911;DHT22;6523;49.758;6.120;2023-11-21T01:12:36;9.20;99.90
12911;DHT22;6523;49.758;6.120;2023-11-21T01:15:03;9.20;99.90
12911;DHT22;6523;49.758;6.120;2023-11-21T01:17:29;9.20;99.90
12911;DHT22;6523;49.758;6.120;2023-11-21T01:19:54;9.20;99.90
12911;DHT22;6523;49.758;6.120;2023-11-21T01:22:21;9.20;99.90
12911;DHT22;6523;49.758;6.120;2023-11-21T01:24:51;9.20;99.90
12911;DHT22;6523;49.758;6.120;2023-11-21T01:27:17;9.20;99.90
12911;DHT22;6523;49.758;6.120;2023-11-21T01:29:42;9.20;99.90
12911;DHT22;6523;49.758;6.120;2023-11-21T01:32:08;9.20;99.90
12911;DHT22;6523;49.758;6.120;2023-11-21T01:34:33;9.20;99.90
12911;DHT22;6523;49.758;6.120;2023-11-21T01:36:59;9.20;99.90
12911;DHT22;6523;49.758;6.120;2023-11-21T01:39:25;9.10;99.90
12911;DHT22;6523;49.758;6.120;2023-11-21T01:41:51;9.20;99.90
12911;DHT22;6523;49.758;6.120;2023-11-21T01:44:17;9.10;99.90
12911;DHT22;6523;49.758;6.120;2023-11-21T01:46:45;9.20;99.90
12911;DHT22;6523;49.758;6.120;2023-11-21T01:49:12;9.10;99.90
12911;DHT22;6523;49.758;6.120;2023-11-21T01:51:40;9.10;99.90
12911;DHT22;6523;49.758;6.120;2023-11-21T01:54:06;9.00;99.90
12911;DHT22;6523;49.758;6.120;2023-11-21T01:56:32;9.00;99.90
12911;DHT22;6523;49.758;6.120;2023-11-21T01:58:58;9.00;99.90
12911;DHT22;6523;49.758;6.120;2023-11-21T02:01:23;9.00;99.90
12911;DHT22;6523;49.758;6.120;2023-11-21T02:03:49;9.00;99.90
12911;DHT22;6523;49.758;6.120;2023-11-21T02:06:14;9.00;99.90
12911;DHT22;6523;49.758;6.120;2023-11-21T02:08:40;9.00;99.90
12911;DHT22;6523;49.758;6.120;2023-11-21T02:11:07;9.00;99.90
12911;DHT22;6523;49.758;6.120;2023-11-21T02:13:34;9.00;99.90
12911;DHT22;6523;49.758;6.120;2023-11-21T02:16:00;9.00;99.90
12911;DHT22;6523;49.758;6.120;2023-11-21T02:18:26;9.00;99.90
12911;DHT22;6523;49.758;6.120;2023-11-21T02:20:55;9.00;99.90
12911;DHT22;6523;49.758;6.120;2023-11-21T02:23:21;9.00;99.90
12911;DHT22;6523;49.758;6.120;2023-11-21T02:25:48;9.00;99.90
12911;DHT22;6523;49.758;6.120;2023-11-21T02:28:14;9.00;99.90
12911;DHT22;6523;49.758;6.120;2023-11-21T02:30:41;9.00;99.90
12911;DHT22;6523;49.758;6.120;2023-11-21T02:33:08;9.00;99.90
12911;DHT22;6523;49.758;6.120;2023-11-21T02:35:33;9.00;99.90
12911;DHT22;6523;49.758;6.120;2023-11-21T02:38:00;9.00;99.90
12911;DHT22;6523;49.758;6.120;2023-11-21T02:40:25;9.00;99.90
12911;DHT22;6523;49.758;6.120;2023-11-21T02:42:51;9.00;99.90
12911;DHT22;6523;49.758;6.120;2023-11-21T02:45:19;9.00;99.90
12911;DHT22;6523;49.758;6.120;2023-11-21T02:47:46;8.90;99.90
12911;DHT22;6523;49.758;6.120;2023-11-21T02:50:12;9.00;99.90
12911;DHT22;6523;49.758;6.120;2023-11-21T02:52:38;8.90;99.90
12911;DHT22;6523;49.758;6.120;2023-11-21T02:55:04;8.90;99.90
12911;DHT22;6523;49.758;6.120;2023-11-21T02:57:30;8.90;99.90
12911;DHT22;6523;49.758;6.120;2023-11-21T02:59:56;8.90;99.90
12911;DHT22;6523;49.758;6.120;2023-11-21T03:02:22;8.90;99.90
12911;DHT22;6523;49.758;6.120;2023-11-21T03:04:48;8.90;99.90
12911;DHT22;6523;49.758;6.120;2023-11-21T03:07:14;8.90;99.90
12911;DHT22;6523;49.758;6.120;2023-11-21T03:09:40;8.90;99.90
12911;DHT22;6523;49.758;6.120;2023-11-21T03:12:06;8.80;99.90
12911;DHT22;6523;49.758;6.120;2023-11-21T03:14:31;8.80;99.90
12911;DHT22;6523;49.758;6.120;2023-11-21T03:16:57;8.80;99.90
12911;DHT22;6523;49.758;6.120;2023-11-21T03:19:22;8.80;99.90
12911;DHT22;6523;49.758;6.120;2023-11-21T03:21:49;8.80;99.90
12911;DHT22;6523;49.758;6.120;2023-11-21T03:24:14;8.80;99.90
12911;DHT22;6523;49.758;6.120;2023-11-21T03:26:45;8.70;99.90
12911;DHT22;6523;49.758;6.120;2023-11-21T03:29:12;8.70;99.90
12911;DHT22;6523;49.758;6.120;2023-11-21T03:31:37;8.70;99.90
12911;DHT22;6523;49.758;6.120;2023-11-21T03:34:03;8.70;99.90
12911;DHT22;6523;49.758;6.120;2023-11-21T03:36:29;8.70;99.90
12911;DHT22;6523;49.758;6.120;2023-11-21T03:38:54;8.70;99.90
12911;DHT22;6523;49.758;6.120;2023-11-21T03:41:21;8.70;99.90
12911;DHT22;6523;49.758;6.120;2023-11-21T03:43:46;8.70;99.90
12911;DHT22;6523;49.758;6.120;2023-11-21T03:46:12;8.70;99.90
12911;DHT22;6523;49.758;6.120;2023-11-21T03:48:38;8.70;99.90
12911;DHT22;6523;49.758;6.120;2023-11-21T03:51:04;8.70;99.90
12911;DHT22;6523;49.758;6.120;2023-11-21T03:53:29;8.70;99.90
12911;DHT22;6523;49.758;6.120;2023-11-21T03:55:55;8.60;99.90
12911;DHT22;6523;49.758;6.120;2023-11-21T03:58:20;8.70;99.90
12911;DHT22;6523;49.758;6.120;2023-11-21T04:00:47;8.60;99.90
12911;DHT22;6523;49.758;6.120;2023-11-21T04:03:14;8.70;99.90
12911;DHT22;6523;49.758;6.120;2023-11-21T04:05:40;8.60;99.90
12911;DHT22;6523;49.758;6.120;2023-11-21T04:08:06;8.60;99.90
12911;DHT22;6523;49.758;6.120;2023-11-21T04:10:32;8.60;99.90
12911;DHT22;6523;49.758;6.120;2023-11-21T04:12:58;8.60;99.90
12911;DHT22;6523;49.758;6.120;2023-11-21T04:15:23;8.60;99.90
12911;DHT22;6523;49.758;6.120;2023-11-21T04:17:49;8.60;99.90
12911;DHT22;6523;49.758;6.120;2023-11-21T04:20:14;8.60;99.90
12911;DHT22;6523;49.758;6.120;2023-11-21T04:22:40;8.50;99.90
12911;DHT22;6523;49.758;6.120;2023-11-21T04:25:10;8.50;99.90
12911;DHT22;6523;49.758;6.120;2023-11-21T04:27:37;8.50;99.90
12911;DHT22;6523;49.758;6.120;2023-11-21T04:30:03;8.50;99.90
12911;DHT22;6523;49.758;6.120;2023-11-21T04:32:30;8.50;99.90
12911;DHT22;6523;49.758;6.120;2023-11-21T04:34:56;8.50;99.90
12911;DHT22;6523;49.758;6.120;2023-11-21T04:37:21;8.50;99.90
12911;DHT22;6523;49.758;6.120;2023-11-21T04:39:48;8.50;99.90
12911;DHT22;6523;49.758;6.120;2023-11-21T04:42:13;8.50;99.90
12911;DHT22;6523;49.758;6.120;2023-11-21T04:44:39;8.50;99.90
12911;DHT22;6523;49.758;6.120;2023-11-21T04:47:06;8.50;99.90
12911;DHT22;6523;49.758;6.120;2023-11-21T04:49:33;8.50;99.90
12911;DHT22;6523;49.758;6.120;2023-11-21T04:51:58;8.50;99.90
12911;DHT22;6523;49.758;6.120;2023-11-21T04:54:24;8.50;99.90
12911;DHT22;6523;49.758;6.120;2023-11-21T04:56:49;8.40;99.90
12911;DHT22;6523;49.758;6.120;2023-11-21T04:59:15;8.40;99.90
12911;DHT22;6523;49.758;6.120;2023-11-21T05:01:41;8.40;99.90
12911;DHT22;6523;49.758;6.120;2023-11-21T05:04:06;8.40;99.90
12911;DHT22;6523;49.758;6.120;2023-11-21T05:06:34;8.40;99.90
12911;DHT22;6523;49.758;6.120;2023-11-21T05:08:59;8.40;99.90
12911;DHT22;6523;49.758;6.120;2023-11-21T05:11:28;8.40;99.90
12911;DHT22;6523;49.758;6.120;2023-11-21T05:13:57;8.40;99.90
12911;DHT22;6523;49.758;6.120;2023-11-21T05:16:25;8.30;99.90
12911;DHT22;6523;49.758;6.120;2023-11-21T05:18:53;8.30;99.90
12911;DHT22;6523;49.758;6.120;2023-11-21T05:21:18;8.30;99.90
12911;DHT22;6523;49.758;6.120;2023-11-21T05:23:46;8.30;99.90
12911;DHT22;6523;49.758;6.120;2023-11-21T05:26:11;8.30;99.90
12911;DHT22;6523;49.758;6.120;2023-11-21T05:28:37;8.30;99.90
12911;DHT22;6523;49.758;6.120;2023-11-21T05:31:02;8.30;99.90
12911;DHT22;6523;49.758;6.120;2023-11-21T05:33:28;8.40;99.90
12911;DHT22;6523;49.758;6.120;2023-11-21T05:35:53;8.30;99.90
12911;DHT22;6523;49.758;6.120;2023-11-21T05:38:20;8.30;99.90
12911;DHT22;6523;49.758;6.120;2023-11-21T05:40:47;8.30;99.90
12911;DHT22;6523;49.758;6.120;2023-11-21T05:43:13;8.30;99.90
12911;DHT22;6523;49.758;6.120;2023-11-21T05:45:38;8.30;99.90
12911;DHT22;6523;49.758;6.120;2023-11-21T05:48:04;8.30;99.90
12911;DHT22;6523;49.758;6.120;2023-11-21T05:50:30;8.30;99.90
12911;DHT22;6523;49.758;6.120;2023-11-21T05:52:56;8.30;99.90
12911;DHT22;6523;49.758;6.120;2023-11-21T05:55:23;8.30;99.90
12911;DHT22;6523;49.758;6.120;2023-11-21T05:57:51;8.30;99.90
12911;DHT22;6523;49.758;6.120;2023-11-21T06:00:16;8.30;99.90
12911;DHT22;6523;49.758;6.120;2023-11-21T06:02:45;8.30;99.90
12911;DHT22;6523;49.758;6.120;2023-11-21T06:05:10;8.30;99.90
12911;DHT22;6523;49.758;6.120;2023-11-21T06:07:37;8.30;99.90
12911;DHT22;6523;49.758;6.120;2023-11-21T06:10:07;8.30;99.90
12911;DHT22;6523;49.758;6.120;2023-11-21T06:12:37;8.20;99.90
12911;DHT22;6523;49.758;6.120;2023-11-21T06:15:03;8.20;99.90
12911;DHT22;6523;49.758;6.120;2023-11-21T06:17:31;8.20;99.90
12911;DHT22;6523;49.758;6.120;2023-11-21T06:19:56;8.20;99.90
12911;DHT22;6523;49.758;6.120;2023-11-21T06:22:22;8.20;99.90
12911;DHT22;6523;49.758;6.120;2023-11-21T06:24:47;8.20;99.90
12911;DHT22;6523;49.758;6.120;2023-11-21T06:27:13;8.20;99.90
12911;DHT22;6523;49.758;6.120;2023-11-21T06:29:38;8.20;99.90
12911;DHT22;6523;49.758;6.120;2023-11-21T06:32:04;8.10;99.90
12911;DHT22;6523;49.758;6.120;2023-11-21T06:34:30;8.10;99.90
12911;DHT22;6523;49.758;6.120;2023-11-21T06:36:56;8.10;99.90
12911;DHT22;6523;49.758;6.120;2023-11-21T06:39:22;8.20;99.90
12911;DHT22;6523;49.758;6.120;2023-11-21T06:41:49;8.20;99.90
12911;DHT22;6523;49.758;6.120;2023-11-21T06:44:15;8.20;99.90
12911;DHT22;6523;49.758;6.120;2023-11-21T06:46:40;8.10;99.90
12911;DHT22;6523;49.758;6.120;2023-11-21T06:49:08;8.10;99.90
12911;DHT22;6523;49.758;6.120;2023-11-21T06:51:33;8.10;99.90
12911;DHT22;6523;49.758;6.120;2023-11-21T06:53:59;8.00;99.90
12911;DHT22;6523;49.758;6.120;2023-11-21T06:56:24;8.10;99.90
12911;DHT22;6523;49.758;6.120;2023-11-21T06:58:51;8.10;99.90
12911;DHT22;6523;49.758;6.120;2023-11-21T07:01:19;8.10;99.90
12911;DHT22;6523;49.758;6.120;2023-11-21T07:03:45;8.10;99.90
12911;DHT22;6523;49.758;6.120;2023-11-21T07:06:11;8.10;99.90
12911;DHT22;6523;49.758;6.120;2023-11-21T07:08:37;8.20;99.90
12911;DHT22;6523;49.758;6.120;2023-11-21T07:11:06;8.20;99.90
12911;DHT22;6523;49.758;6.120;2023-11-21T07:13:31;8.20;99.90
12911;DHT22;6523;49.758;6.120;2023-11-21T07:16:00;8.20;99.90
12911;DHT22;6523;49.758;6.120;2023-11-21T07:18:25;8.10;99.90
12911;DHT22;6523;49.758;6.120;2023-11-21T07:20:51;8.10;99.90
12911;DHT22;6523;49.758;6.120;2023-11-21T07:23:17;8.10;99.90
12911;DHT22;6523;49.758;6.120;2023-11-21T07:25:42;8.10;99.90
12911;DHT22;6523;49.758;6.120;2023-11-21T07:28:09;8.10;99.90
12911;DHT22;6523;49.758;6.120;2023-11-21T07:30:34;8.20;99.90
12911;DHT22;6523;49.758;6.120;2023-11-21T07:33:00;8.20;99.90
12911;DHT22;6523;49.758;6.120;2023-11-21T07:35:26;8.20;99.90
12911;DHT22;6523;49.758;6.120;2023-11-21T07:37:52;8.20;99.90
12911;DHT22;6523;49.758;6.120;2023-11-21T07:40:17;8.20;99.90
12911;DHT22;6523;49.758;6.120;2023-11-21T07:42:43;8.30;99.90
12911;DHT22;6523;49.758;6.120;2023-11-21T07:45:09;8.30;99.90
12911;DHT22;6523;49.758;6.120;2023-11-21T07:47:34;8.30;99.90
12911;DHT22;6523;49.758;6.120;2023-11-21T07:50:02;8.30;99.90
12911;DHT22;6523;49.758;6.120;2023-11-21T07:52:28;8.30;99.90
12911;DHT22;6523;49.758;6.120;2023-11-21T07:54:54;8.40;99.90
12911;DHT22;6523;49.758;6.120;2023-11-21T07:57:19;8.40;99.90
12911;DHT22;6523;49.758;6.120;2023-11-21T07:59:45;8.40;99.90
12911;DHT22;6523;49.758;6.120;2023-11-21T08:02:10;8.30;99.90
12911;DHT22;6523;49.758;6.120;2023-11-21T08:04:36;8.30;99.90
12911;DHT22;6523;49.758;6.120;2023-11-21T08:07:01;8.40;99.90
12911;DHT22;6523;49.758;6.120;2023-11-21T08:09:29;8.40;99.90
12911;DHT22;6523;49.758;6.120;2023-11-21T08:11:55;8.40;99.90
12911;DHT22;6523;49.758;6.120;2023-11-21T08:14:20;8.50;99.90
12911;DHT22;6523;49.758;6.120;2023-11-21T08:16:46;8.60;99.90
12911;DHT22;6523;49.758;6.120;2023-11-21T08:19:12;8.60;99.90
12911;DHT22;6523;49.758;6.120;2023-11-21T08:21:38;8.60;99.90
12911;DHT22;6523;49.758;6.120;2023-11-21T08:24:05;8.70;99.90
12911;DHT22;6523;49.758;6.120;2023-11-21T08:26:31;8.80;99.90
12911;DHT22;6523;49.758;6.120;2023-11-21T08:28:56;8.80;99.90
12911;DHT22;6523;49.758;6.120;2023-11-21T08:31:25;8.80;99.90
12911;DHT22;6523;49.758;6.120;2023-11-21T08:33:51;8.80;99.90
12911;DHT22;6523;49.758;6.120;2023-11-21T08:36:18;8.80;99.90
12911;DHT22;6523;49.758;6.120;2023-11-21T08:38:43;9.00;99.90
12911;DHT22;6523;49.758;6.120;2023-11-21T08:41:10;9.00;99.90
12911;DHT22;6523;49.758;6.120;2023-11-21T08:43:36;8.90;99.90
12911;DHT22;6523;49.758;6.120;2023-11-21T08:46:06;8.90;99.90
12911;DHT22;6523;49.758;6.120;2023-11-21T08:48:31;9.00;99.90
12911;DHT22;6523;49.758;6.120;2023-11-21T08:50:57;9.00;99.90
12911;DHT22;6523;49.758;6.120;2023-11-21T08:53:22;9.10;99.90
12911;DHT22;6523;49.758;6.120;2023-11-21T08:55:48;9.10;99.90
12911;DHT22;6523;49.758;6.120;2023-11-21T08:58:15;9.20;99.90
12911;DHT22;6523;49.758;6.120;2023-11-21T09:00:41;9.20;99.90
12911;DHT22;6523;49.758;6.120;2023-11-21T09:03:06;9.30;99.90
12911;DHT22;6523;49.758;6.120;2023-11-21T09:05:37;9.30;99.90
12911;DHT22;6523;49.758;6.120;2023-11-21T09:08:04;9.20;99.90
12911;DHT22;6523;49.758;6.120;2023-11-21T09:10:29;9.40;99.90
12911;DHT22;6523;49.758;6.120;2023-11-21T09:12:55;9.50;99.90
12911;DHT22;6523;49.758;6.120;2023-11-21T09:15:20;9.60;99.90
12911;DHT22;6523;49.758;6.120;2023-11-21T09:17:47;9.70;99.90
12911;DHT22;6523;49.758;6.120;2023-11-21T09:20:13;9.80;99.90
12911;DHT22;6523;49.758;6.120;2023-11-21T09:22:40;9.70;99.90
12911;DHT22;6523;49.758;6.120;2023-11-21T09:25:06;9.70;99.90
12911;DHT22;6523;49.758;6.120;2023-11-21T09:27:34;9.70;99.90
12911;DHT22;6523;49.758;6.120;2023-11-21T09:30:01;9.70;99.90
12911;DHT22;6523;49.758;6.120;2023-11-21T09:32:26;9.70;99.90
12911;DHT22;6523;49.758;6.120;2023-11-21T09:34:52;9.70;99.90
12911;DHT22;6523;49.758;6.120;2023-11-21T09:37:20;9.70;99.90
12911;DHT22;6523;49.758;6.120;2023-11-21T09:39:46;9.70;99.90
12911;DHT22;6523;49.758;6.120;2023-11-21T09:42:13;9.80;99.90
12911;DHT22;6523;49.758;6.120;2023-11-21T09:44:54;9.90;99.90
12911;DHT22;6523;49.758;6.120;2023-11-21T09:47:24;9.90;99.90
12911;DHT22;6523;49.758;6.120;2023-11-21T09:49:50;10.00;99.90
12911;DHT22;6523;49.758;6.120;2023-11-21T09:52:24;10.00;99.90
12911;DHT22;6523;49.758;6.120;2023-11-21T09:54:54;10.10;99.90
12911;DHT22;6523;49.758;6.120;2023-11-21T09:57:20;10.30;99.90
12911;DHT22;6523;49.758;6.120;2023-11-21T09:59:53;10.10;99.90
12911;DHT22;6523;49.758;6.120;2023-11-21T10:02:28;10.10;99.90
12911;DHT22;6523;49.758;6.120;2023-11-21T10:04:59;10.10;99.90
12911;DHT22;6523;49.758;6.120;2023-11-21T10:07:26;10.10;99.90
12911;DHT22;6523;49.758;6.120;2023-11-21T10:09:53;10.10;99.90
12911;DHT22;6523;49.758;6.120;2023-11-21T10:12:18;10.20;99.90
12911;DHT22;6523;49.758;6.120;2023-11-21T10:14:48;10.10;99.90
12911;DHT22;6523;49.758;6.120;2023-11-21T10:17:15;10.00;99.90
12911;DHT22;6523;49.758;6.120;2023-11-21T10:19:46;10.00;99.90
12911;DHT22;6523;49.758;6.120;2023-11-21T10:22:12;9.80;99.90
12911;DHT22;6523;49.758;6.120;2023-11-21T10:24:40;9.90;99.90
12911;DHT22;6523;49.758;6.120;2023-11-21T10:27:05;9.90;99.90
12911;DHT22;6523;49.758;6.120;2023-11-21T10:29:31;9.90;99.90
12911;DHT22;6523;49.758;6.120;2023-11-21T10:32:02;10.00;99.90
12911;DHT22;6523;49.758;6.120;2023-11-21T10:34:27;10.10;99.90
12911;DHT22;6523;49.758;6.120;2023-11-21T10:36:53;10.10;99.90
12911;DHT22;6523;49.758;6.120;2023-11-21T10:39:20;10.00;99.90
12911;DHT22;6523;49.758;6.120;2023-11-21T10:41:48;10.00;99.90
12911;DHT22;6523;49.758;6.120;2023-11-21T10:44:16;10.10;99.90
12911;DHT22;6523;49.758;6.120;2023-11-21T10:46:53;10.10;99.90
12911;DHT22;6523;49.758;6.120;2023-11-21T10:49:22;10.20;99.90
12911;DHT22;6523;49.758;6.120;2023-11-21T10:51:50;10.20;99.90
12911;DHT22;6523;49.758;6.120;2023-11-21T10:54:21;10.20;99.90
12911;DHT22;6523;49.758;6.120;2023-11-21T10:56:49;10.30;99.90
12911;DHT22;6523;49.758;6.120;2023-11-21T10:59:17;10.30;99.90
12911;DHT22;6523;49.758;6.120;2023-11-21T11:01:45;10.30;99.90
12911;DHT22;6523;49.758;6.120;2023-11-21T11:04:12;10.50;99.90
12911;DHT22;6523;49.758;6.120;2023-11-21T11:06:48;10.50;99.90
12911;DHT22;6523;49.758;6.120;2023-11-21T11:09:17;10.50;99.90
12911;DHT22;6523;49.758;6.120;2023-11-21T11:11:43;10.60;99.90
12911;DHT22;6523;49.758;6.120;2023-11-21T11:14:12;10.70;99.90
12911;DHT22;6523;49.758;6.120;2023-11-21T11:16:39;10.70;99.90
12911;DHT22;6523;49.758;6.120;2023-11-21T11:19:11;10.80;99.90
12911;DHT22;6523;49.758;6.120;2023-11-21T11:22:05;10.80;99.90
12911;DHT22;6523;49.758;6.120;2023-11-21T11:25:03;10.70;99.90
12911;DHT22;6523;49.758;6.120;2023-11-21T11:27:37;10.80;99.90
12911;DHT22;6523;49.758;6.120;2023-11-21T11:30:27;10.70;99.90
12911;DHT22;6523;49.758;6.120;2023-11-21T11:38:34;10.90;99.90
12911;DHT22;6523;49.758;6.120;2023-11-21T11:41:05;10.80;99.90
12911;DHT22;6523;49.758;6.120;2023-11-21T11:43:31;10.90;99.90
12911;DHT22;6523;49.758;6.120;2023-11-21T11:46:10;10.90;99.90
12911;DHT22;6523;49.758;6.120;2023-11-21T11:48:39;10.90;99.90
12911;DHT22;6523;49.758;6.120;2023-11-21T11:51:09;10.90;99.90
12911;DHT22;6523;49.758;6.120;2023-11-21T11:53:36;10.90;99.90
12911;DHT22;6523;49.758;6.120;2023-11-21T11:56:26;10.80;99.90
12911;DHT22;6523;49.758;6.120;2023-11-21T11:58:56;10.80;99.90
12911;DHT22;6523;49.758;6.120;2023-11-21T12:01:24;10.80;99.90
12911;DHT22;6523;49.758;6.120;2023-11-21T12:06:51;10.60;99.90
12911;DHT22;6523;49.758;6.120;2023-11-21T12:09:18;10.70;99.90
12911;DHT22;6523;49.758;6.120;2023-11-21T12:11:46;10.80;99.90
12911;DHT22;6523;49.758;6.120;2023-11-21T12:14:13;11.00;99.90
12911;DHT22;6523;49.758;6.120;2023-11-21T12:16:39;11.10;99.90
12911;DHT22;6523;49.758;6.120;2023-11-21T12:19:05;11.20;99.90
12911;DHT22;6523;49.758;6.120;2023-11-21T12:21:31;11.10;99.90
12911;DHT22;6523;49.758;6.120;2023-11-21T12:23:57;11.10;99.90
12911;DHT22;6523;49.758;6.120;2023-11-21T12:26:27;11.00;99.90
12911;DHT22;6523;49.758;6.120;2023-11-21T12:28:53;11.00;99.90
12911;DHT22;6523;49.758;6.120;2023-11-21T12:31:22;11.00;99.90
12911;DHT22;6523;49.758;6.120;2023-11-21T12:33:48;11.10;99.90
12911;DHT22;6523;49.758;6.120;2023-11-21T12:36:13;11.20;99.90
12911;DHT22;6523;49.758;6.120;2023-11-21T12:38:39;11.20;99.90
12911;DHT22;6523;49.758;6.120;2023-11-21T12:41:05;11.30;99.90
12911;DHT22;6523;49.758;6.120;2023-11-21T12:43:32;11.40;99.90
12911;DHT22;6523;49.758;6.120;2023-11-21T12:46:08;11.50;99.90
12911;DHT22;6523;49.758;6.120;2023-11-21T12:48:39;11.50;99.90
12911;DHT22;6523;49.758;6.120;2023-11-21T12:51:07;11.70;99.90
12911;DHT22;6523;49.758;6.120;2023-11-21T12:53:33;11.70;99.90
12911;DHT22;6523;49.758;6.120;2023-11-21T12:56:10;11.60;99.90
12911;DHT22;6523;49.758;6.120;2023-11-21T12:58:36;11.70;99.90
12911;DHT22;6523;49.758;6.120;2023-11-21T13:01:04;11.50;99.90
12911;DHT22;6523;49.758;6.120;2023-11-21T13:03:30;11.50;99.90
12911;DHT22;6523;49.758;6.120;2023-11-21T13:05:56;11.40;99.90
12911;DHT22;6523;49.758;6.120;2023-11-21T13:08:25;11.40;99.90
12911;DHT22;6523;49.758;6.120;2023-11-21T13:10:56;11.20;99.90
12911;DHT22;6523;49.758;6.120;2023-11-21T13:13:23;11.20;99.90
12911;DHT22;6523;49.758;6.120;2023-11-21T13:15:53;11.30;99.90
12911;DHT22;6523;49.758;6.120;2023-11-21T13:18:26;11.40;99.90
12911;DHT22;6523;49.758;6.120;2023-11-21T13:20:56;11.50;99.90
12911;DHT22;6523;49.758;6.120;2023-11-21T13:23:23;11.50;99.90
12911;DHT22;6523;49.758;6.120;2023-11-21T13:25:49;11.60;99.90
12911;DHT22;6523;49.758;6.120;2023-11-21T13:28:15;11.50;99.90
12911;DHT22;6523;49.758;6.120;2023-11-21T13:30:43;11.40;99.90
12911;DHT22;6523;49.758;6.120;2023-11-21T13:33:10;11.50;99.90
12911;DHT22;6523;49.758;6.120;2023-11-21T13:35:43;11.50;99.90
12911;DHT22;6523;49.758;6.120;2023-11-21T13:38:14;11.50;99.90
12911;DHT22;6523;49.758;6.120;2023-11-21T13:40:47;11.40;99.90
12911;DHT22;6523;49.758;6.120;2023-11-21T13:43:17;11.30;99.90
12911;DHT22;6523;49.758;6.120;2023-11-21T13:45:47;11.30;99.90
12911;DHT22;6523;49.758;6.120;2023-11-21T13:48:15;11.10;99.90
12911;DHT22;6523;49.758;6.120;2023-11-21T13:50:44;11.10;99.90
12911;DHT22;6523;49.758;6.120;2023-11-21T13:53:26;11.00;99.90
12911;DHT22;6523;49.758;6.120;2023-11-21T13:55:53;11.00;99.90
12911;DHT22;6523;49.758;6.120;2023-11-21T13:58:25;11.00;99.90
12911;DHT22;6523;49.758;6.120;2023-11-21T14:01:09;10.90;99.90
12911;DHT22;6523;49.758;6.120;2023-11-21T14:03:50;11.00;99.90
12911;DHT22;6523;49.758;6.120;2023-11-21T14:06:22;10.80;99.90
12911;DHT22;6523;49.758;6.120;2023-11-21T14:08:53;10.80;99.90
12911;DHT22;6523;49.758;6.120;2023-11-21T14:11:22;10.90;99.90
12911;DHT22;6523;49.758;6.120;2023-11-21T14:13:47;10.90;99.90
12911;DHT22;6523;49.758;6.120;2023-11-21T14:16:14;11.10;99.90
12911;DHT22;6523;49.758;6.120;2023-11-21T14:18:40;11.40;99.90
12911;DHT22;6523;49.758;6.120;2023-11-21T14:21:20;11.50;99.90
12911;DHT22;6523;49.758;6.120;2023-11-21T14:23:47;11.70;99.90
12911;DHT22;6523;49.758;6.120;2023-11-21T14:26:13;11.90;99.90
12911;DHT22;6523;49.758;6.120;2023-11-21T14:28:40;12.00;99.90
12911;DHT22;6523;49.758;6.120;2023-11-21T14:31:07;11.90;99.90
12911;DHT22;6523;49.758;6.120;2023-11-21T14:33:33;11.80;99.90
12911;DHT22;6523;49.758;6.120;2023-11-21T14:35:58;11.60;99.90
12911;DHT22;6523;49.758;6.120;2023-11-21T14:38:24;11.60;99.90
12911;DHT22;6523;49.758;6.120;2023-11-21T14:40:49;11.70;99.90
12911;DHT22;6523;49.758;6.120;2023-11-21T14:43:15;11.50;99.90
12911;DHT22;6523;49.758;6.120;2023-11-21T14:45:42;11.40;99.90
12911;DHT22;6523;49.758;6.120;2023-11-21T14:48:07;11.20;99.90
12911;DHT22;6523;49.758;6.120;2023-11-21T14:50:41;11.10;99.90
12911;DHT22;6523;49.758;6.120;2023-11-21T14:53:11;11.00;99.90
12911;DHT22;6523;49.758;6.120;2023-11-21T14:55:38;11.00;99.90
12911;DHT22;6523;49.758;6.120;2023-11-21T14:58:17;10.90;99.90
12911;DHT22;6523;49.758;6.120;2023-11-21T15:00:52;10.80;99.90
12911;DHT22;6523;49.758;6.120;2023-11-21T15:03:23;10.80;99.90
12911;DHT22;6523;49.758;6.120;2023-11-21T15:06:02;10.80;99.90
12911;DHT22;6523;49.758;6.120;2023-11-21T15:08:49;10.70;99.90
12911;DHT22;6523;49.758;6.120;2023-11-21T15:11:21;10.70;99.90
12911;DHT22;6523;49.758;6.120;2023-11-21T15:13:53;10.60;99.90
12911;DHT22;6523;49.758;6.120;2023-11-21T15:16:19;10.70;99.90
12911;DHT22;6523;49.758;6.120;2023-11-21T15:18:44;10.70;99.90
12911;DHT22;6523;49.758;6.120;2023-11-21T15:21:10;10.70;99.90
12911;DHT22;6523;49.758;6.120;2023-11-21T15:23:37;10.70;99.90
12911;DHT22;6523;49.758;6.120;2023-11-21T15:26:04;10.60;99.90
12911;DHT22;6523;49.758;6.120;2023-11-21T15:28:30;10.50;99.90
12911;DHT22;6523;49.758;6.120;2023-11-21T15:30:57;10.50;99.90
12911;DHT22;6523;49.758;6.120;2023-11-21T15:33:23;10.50;99.90
12911;DHT22;6523;49.758;6.120;2023-11-21T15:35:49;10.40;99.90
12911;DHT22;6523;49.758;6.120;2023-11-21T15:38:14;10.40;99.90
12911;DHT22;6523;49.758;6.120;2023-11-21T15:40:40;10.30;99.90
12911;DHT22;6523;49.758;6.120;2023-11-21T15:43:05;10.20;99.90
12911;DHT22;6523;49.758;6.120;2023-11-21T15:45:32;10.20;99.90
12911;DHT22;6523;49.758;6.120;2023-11-21T15:47:58;10.10;99.90
12911;DHT22;6523;49.758;6.120;2023-11-21T15:50:24;10.00;99.90
12911;DHT22;6523;49.758;6.120;2023-11-21T15:52:51;10.00;99.90
12911;DHT22;6523;49.758;6.120;2023-11-21T15:55:17;9.90;99.90
12911;DHT22;6523;49.758;6.120;2023-11-21T15:57:43;9.90;99.90
12911;DHT22;6523;49.758;6.120;2023-11-21T16:00:09;9.90;99.90
12911;DHT22;6523;49.758;6.120;2023-11-21T16:02:45;9.90;99.90
12911;DHT22;6523;49.758;6.120;2023-11-21T16:05:11;9.90;99.90
12911;DHT22;6523;49.758;6.120;2023-11-21T16:07:40;9.90;99.90